Terminal Aerodrome Forecast
Issued by NWS

Home | Current Version | Previous Version | Text Only | Print | Product List | Glossary On
Versions: 1 2 3 4 5 6 7 8 9 10 11 12 13 14 15 16 17 18 19 20 21 22
014
FTUS46 KPDT 111140
TAFBDN
TAF
KBDN 111140Z 1112/1212 22011G16KT P6SM SCT040 SCT090
     FM111800 22015G23KT P6SM VCSH BKN040 OVC070
     FM120000 23010KT 6SM -SHSN OVC035
     FM120600 25006KT 4SM -SN BR BKN020 OVC030=

USA.gov is the U.S. government's official web portal to all federal, state and local government web resources and services.